Ah Gwah Ching, Minnesota
Current Conditions -  °F | °C
As of 6:55 AM on Saturday 20 Dec 2014 (Local Time) from KY49 Reporting Station
Haze Haze  
Wind Chill: -5°   Ceiling: 400
Heat Index: -2°   Visibility: 3mi
Dew Point: -2°   Wind: 6mph
Humidity: 96%   Direction: 190°S
Pressure: 30.03"   Gusts: NA
Location:  47.08°N, 94.57°W
Report Text: KY49 201255Z AUTO 19005KT 3SM BR OVC004 M02/M02 A3003 RMK AO2 T10181023
Loading
Personal Weather Stations






























Interactive Weather Map New forecast layout! Learn more

10-Day Weather Forecast

Advertisements
Track Severe Weather on mobile